« Back
NWS Peachtree City, Ga » Text Product » MCN Terminal Aerodrome Forecast


Printer-friendly Version
Current Version              Previous Versions:   1  2  3  4  5  6  7  8  9  

Terminal Aerodrome Forecast

651
FTUS42 KFFC 261100
TAFMCN
TAF
KMCN 261122Z 2612/2712 00000KT 6SM BR FEW020
     FM261600 28007KT P6SM SCT045
     FM270200 25004KT P6SM FEW050=



USA.gov is the U.S. government's official web portal to all federal, state and local government web resources and services.